sensor_id;sensor_type;location;lat;lon;timestamp;pressure;altitude;pressure_sealevel;temperature;humidity
71917;BME280;59793;46.506;6.674;2023-02-23T00:01:16;96946.00;;;10.50;78.68
71917;BME280;59793;46.506;6.674;2023-02-23T00:03:42;96940.41;;;10.36;79.32
71917;BME280;59793;46.506;6.674;2023-02-23T00:06:08;96912.38;;;10.28;78.78
71917;BME280;59793;46.506;6.674;2023-02-23T00:08:34;96933.88;;;10.46;78.88
71917;BME280;59793;46.506;6.674;2023-02-23T00:11:08;96899.28;;;10.16;79.34
71917;BME280;59793;46.506;6.674;2023-02-23T00:13:35;96903.81;;;10.31;79.03
71917;BME280;59793;46.506;6.674;2023-02-23T00:16:27;96903.88;;;10.19;79.78
71917;BME280;59793;46.506;6.674;2023-02-23T00:18:56;96926.81;;;10.34;80.12
71917;BME280;59793;46.506;6.674;2023-02-23T00:21:26;96901.16;;;10.15;79.97
71917;BME280;59793;46.506;6.674;2023-02-23T00:24:17;96930.13;;;10.47;79.54
71917;BME280;59793;46.506;6.674;2023-02-23T00:26:44;96885.94;;;10.24;79.40
71917;BME280;59793;46.506;6.674;2023-02-23T00:29:14;96913.06;;;10.41;79.33
71917;BME280;59793;46.506;6.674;2023-02-23T00:31:43;96927.25;;;10.36;79.59
71917;BME280;59793;46.506;6.674;2023-02-23T00:34:10;96921.47;;;10.31;79.71
71917;BME280;59793;46.506;6.674;2023-02-23T00:36:36;96920.28;;;10.28;79.78
71917;BME280;59793;46.506;6.674;2023-02-23T00:39:06;96905.00;;;10.18;79.99
71917;BME280;59793;46.506;6.674;2023-02-23T00:41:42;96917.72;;;10.16;79.82
71917;BME280;59793;46.506;6.674;2023-02-23T00:44:08;96912.91;;;10.18;79.89
71917;BME280;59793;46.506;6.674;2023-02-23T00:46:33;96874.66;;;9.92;79.97
71917;BME280;59793;46.506;6.674;2023-02-23T00:48:59;96905.75;;;10.18;79.83
71917;BME280;59793;46.506;6.674;2023-02-23T00:51:26;96907.53;;;10.30;79.22
71917;BME280;59793;46.506;6.674;2023-02-23T00:53:55;96910.19;;;10.30;79.28
71917;BME280;59793;46.506;6.674;2023-02-23T00:56:21;96898.38;;;10.08;79.48
71917;BME280;59793;46.506;6.674;2023-02-23T00:58:47;96915.59;;;10.05;79.93
71917;BME280;59793;46.506;6.674;2023-02-23T01:01:13;96897.75;;;9.99;80.29
71917;BME280;59793;46.506;6.674;2023-02-23T01:03:41;96902.34;;;10.02;80.35
71917;BME280;59793;46.506;6.674;2023-02-23T01:06:10;96903.38;;;9.97;80.56
71917;BME280;59793;46.506;6.674;2023-02-23T01:08:38;96900.66;;;9.94;80.37
71917;BME280;59793;46.506;6.674;2023-02-23T01:11:06;96889.53;;;10.00;79.57
71917;BME280;59793;46.506;6.674;2023-02-23T01:13:31;96874.50;;;10.01;79.30
71917;BME280;59793;46.506;6.674;2023-02-23T01:15:57;96896.94;;;10.26;78.71
71917;BME280;59793;46.506;6.674;2023-02-23T01:18:22;96883.41;;;10.28;78.58
71917;BME280;59793;46.506;6.674;2023-02-23T01:20:48;96864.63;;;10.14;78.16
71917;BME280;59793;46.506;6.674;2023-02-23T01:23:15;96900.25;;;10.39;78.29
71917;BME280;59793;46.506;6.674;2023-02-23T01:25:42;96903.56;;;10.36;79.50
71917;BME280;59793;46.506;6.674;2023-02-23T01:28:11;96887.16;;;10.27;79.86
71917;BME280;59793;46.506;6.674;2023-02-23T01:30:38;96904.47;;;10.28;80.17
71917;BME280;59793;46.506;6.674;2023-02-23T01:33:04;96888.09;;;10.19;80.42
71917;BME280;59793;46.506;6.674;2023-02-23T01:35:30;96889.13;;;10.14;80.86
71917;BME280;59793;46.506;6.674;2023-02-23T01:37:57;96888.16;;;10.06;81.36
71917;BME280;59793;46.506;6.674;2023-02-23T01:40:24;96888.31;;;10.14;81.10
71917;BME280;59793;46.506;6.674;2023-02-23T01:42:55;96885.63;;;10.10;81.17
71917;BME280;59793;46.506;6.674;2023-02-23T01:45:32;96888.09;;;10.19;80.65
71917;BME280;59793;46.506;6.674;2023-02-23T01:48:03;96892.84;;;10.13;80.85
71917;BME280;59793;46.506;6.674;2023-02-23T01:50:36;96878.91;;;10.13;80.72
71917;BME280;59793;46.506;6.674;2023-02-23T01:53:03;96881.81;;;10.08;81.00
71917;BME280;59793;46.506;6.674;2023-02-23T01:55:29;96874.00;;;9.95;81.35
71917;BME280;59793;46.506;6.674;2023-02-23T01:58:03;96883.84;;;9.98;81.56
71917;BME280;59793;46.506;6.674;2023-02-23T02:00:29;96871.19;;;9.88;81.51
71917;BME280;59793;46.506;6.674;2023-02-23T02:02:56;96886.84;;;9.97;80.64
71917;BME280;59793;46.506;6.674;2023-02-23T02:05:24;96883.34;;;10.09;80.07
71917;BME280;59793;46.506;6.674;2023-02-23T02:07:50;96884.19;;;10.13;79.95
71917;BME280;59793;46.506;6.674;2023-02-23T02:10:24;96880.53;;;9.86;81.22
71917;BME280;59793;46.506;6.674;2023-02-23T02:13:14;96857.72;;;9.90;80.40
71917;BME280;59793;46.506;6.674;2023-02-23T02:16:17;96872.22;;;10.15;80.17
71917;BME280;59793;46.506;6.674;2023-02-23T02:22:28;96873.88;;;10.23;79.75
71917;BME280;59793;46.506;6.674;2023-02-23T02:42:07;96844.44;;;10.18;80.17
71917;BME280;59793;46.506;6.674;2023-02-23T02:47:11;96826.19;;;10.09;79.92
71917;BME280;59793;46.506;6.674;2023-02-23T02:50:03;96841.09;;;10.21;79.27
71917;BME280;59793;46.506;6.674;2023-02-23T02:52:38;96833.63;;;10.23;78.74
71917;BME280;59793;46.506;6.674;2023-02-23T02:55:16;96802.16;;;10.11;78.47
71917;BME280;59793;46.506;6.674;2023-02-23T02:57:44;96820.69;;;9.98;78.96
71917;BME280;59793;46.506;6.674;2023-02-23T03:00:19;96838.00;;;10.15;78.77
71917;BME280;59793;46.506;6.674;2023-02-23T03:03:04;96827.94;;;10.21;78.29
71917;BME280;59793;46.506;6.674;2023-02-23T03:05:51;96830.34;;;10.10;78.80
71917;BME280;59793;46.506;6.674;2023-02-23T03:08:49;96831.38;;;10.05;78.63
71917;BME280;59793;46.506;6.674;2023-02-23T03:11:39;96843.69;;;10.01;79.10
71917;BME280;59793;46.506;6.674;2023-02-23T03:14:34;96829.38;;;9.83;79.45
71917;BME280;59793;46.506;6.674;2023-02-23T03:17:45;96850.41;;;9.99;79.10
71917;BME280;59793;46.506;6.674;2023-02-23T03:20:49;96844.03;;;9.84;79.81
71917;BME280;59793;46.506;6.674;2023-02-23T03:27:02;96825.09;;;9.94;78.95
71917;BME280;59793;46.506;6.674;2023-02-23T03:32:50;96848.00;;;10.10;78.69
71917;BME280;59793;46.506;6.674;2023-02-23T03:35:56;96853.63;;;10.08;78.47
71917;BME280;59793;46.506;6.674;2023-02-23T03:39:01;96847.00;;;9.98;78.93
71917;BME280;59793;46.506;6.674;2023-02-23T03:41:51;96845.03;;;9.95;79.34
71917;BME280;59793;46.506;6.674;2023-02-23T03:44:40;96819.34;;;9.89;79.04
71917;BME280;59793;46.506;6.674;2023-02-23T03:47:29;96840.72;;;10.03;78.70
71917;BME280;59793;46.506;6.674;2023-02-23T03:50:28;96842.16;;;10.00;78.85
71917;BME280;59793;46.506;6.674;2023-02-23T03:53:16;96819.16;;;9.97;78.79
71917;BME280;59793;46.506;6.674;2023-02-23T03:56:01;96829.34;;;10.15;78.29
71917;BME280;59793;46.506;6.674;2023-02-23T03:58:50;96844.28;;;10.11;78.35
71917;BME280;59793;46.506;6.674;2023-02-23T04:01:37;96763.19;;;9.49;78.13
71917;BME280;59793;46.506;6.674;2023-02-23T04:04:23;96831.25;;;9.82;78.86
71917;BME280;59793;46.506;6.674;2023-02-23T04:07:09;96824.25;;;9.74;79.26
71917;BME280;59793;46.506;6.674;2023-02-23T04:09:55;96808.22;;;9.64;79.58
71917;BME280;59793;46.506;6.674;2023-02-23T04:15:38;96830.03;;;9.64;80.53
71917;BME280;59793;46.506;6.674;2023-02-23T04:18:05;96835.38;;;9.84;79.48
71917;BME280;59793;46.506;6.674;2023-02-23T04:20:31;96830.03;;;9.96;79.06
71917;BME280;59793;46.506;6.674;2023-02-23T04:22:56;96844.88;;;10.04;78.99
71917;BME280;59793;46.506;6.674;2023-02-23T04:25:22;96845.28;;;10.06;78.76
71917;BME280;59793;46.506;6.674;2023-02-23T04:27:50;96835.63;;;9.94;78.82
71917;BME280;59793;46.506;6.674;2023-02-23T04:30:16;96848.78;;;9.94;79.58
71917;BME280;59793;46.506;6.674;2023-02-23T04:32:42;96833.25;;;9.89;79.29
71917;BME280;59793;46.506;6.674;2023-02-23T04:35:11;96852.88;;;9.92;79.94
71917;BME280;59793;46.506;6.674;2023-02-23T04:37:37;96810.94;;;9.67;79.71
71917;BME280;59793;46.506;6.674;2023-02-23T04:40:03;96823.25;;;9.79;79.50
71917;BME280;59793;46.506;6.674;2023-02-23T04:42:29;96797.72;;;9.64;79.47
71917;BME280;59793;46.506;6.674;2023-02-23T04:44:54;96846.84;;;9.91;79.25
71917;BME280;59793;46.506;6.674;2023-02-23T04:47:19;96853.09;;;10.02;78.99
71917;BME280;59793;46.506;6.674;2023-02-23T04:49:45;96844.38;;;9.98;78.98
71917;BME280;59793;46.506;6.674;2023-02-23T04:52:10;96834.13;;;9.93;79.00
71917;BME280;59793;46.506;6.674;2023-02-23T04:54:39;96850.06;;;10.00;79.16
71917;BME280;59793;46.506;6.674;2023-02-23T04:57:05;96773.13;;;9.40;79.51
71917;BME280;59793;46.506;6.674;2023-02-23T04:59:31;96850.34;;;9.79;79.68
71917;BME280;59793;46.506;6.674;2023-02-23T05:01:56;96842.34;;;9.60;80.10
71917;BME280;59793;46.506;6.674;2023-02-23T05:04:21;96843.75;;;9.57;80.90
71917;BME280;59793;46.506;6.674;2023-02-23T05:06:47;96813.06;;;9.30;81.05
71917;BME280;59793;46.506;6.674;2023-02-23T05:09:13;96829.09;;;9.56;80.15
71917;BME280;59793;46.506;6.674;2023-02-23T05:11:38;96838.19;;;9.75;79.65
71917;BME280;59793;46.506;6.674;2023-02-23T05:14:03;96845.16;;;9.83;79.54
71917;BME280;59793;46.506;6.674;2023-02-23T05:16:29;96798.56;;;9.52;79.60
71917;BME280;59793;46.506;6.674;2023-02-23T05:18:54;96826.75;;;9.83;79.34
71917;BME280;59793;46.506;6.674;2023-02-23T05:21:20;96821.53;;;9.71;79.95
71917;BME280;59793;46.506;6.674;2023-02-23T05:23:45;96839.19;;;9.70;80.44
71917;BME280;59793;46.506;6.674;2023-02-23T05:26:11;96817.31;;;9.66;79.89
71917;BME280;59793;46.506;6.674;2023-02-23T05:28:38;96849.75;;;9.86;79.81
71917;BME280;59793;46.506;6.674;2023-02-23T05:31:04;96837.75;;;9.73;79.92
71917;BME280;59793;46.506;6.674;2023-02-23T05:33:31;96849.91;;;9.77;79.94
71917;BME280;59793;46.506;6.674;2023-02-23T05:35:57;96845.75;;;9.76;80.00
71917;BME280;59793;46.506;6.674;2023-02-23T05:38:24;96844.97;;;9.76;80.39
71917;BME280;59793;46.506;6.674;2023-02-23T05:40:50;96832.16;;;9.58;81.03
71917;BME280;59793;46.506;6.674;2023-02-23T05:43:15;96838.50;;;9.57;81.37
71917;BME280;59793;46.506;6.674;2023-02-23T05:45:41;96836.50;;;9.67;81.15
71917;BME280;59793;46.506;6.674;2023-02-23T05:48:08;96821.28;;;9.60;80.90
71917;BME280;59793;46.506;6.674;2023-02-23T05:50:34;96825.97;;;9.67;80.87
71917;BME280;59793;46.506;6.674;2023-02-23T05:53:00;96836.16;;;9.84;80.50
71917;BME280;59793;46.506;6.674;2023-02-23T05:55:25;96830.97;;;9.88;80.11
71917;BME280;59793;46.506;6.674;2023-02-23T05:57:51;96821.03;;;9.81;79.71
71917;BME280;59793;46.506;6.674;2023-02-23T06:00:16;96815.53;;;9.70;80.19
71917;BME280;59793;46.506;6.674;2023-02-23T06:02:42;96805.59;;;9.64;80.35
71917;BME280;59793;46.506;6.674;2023-02-23T06:05:09;96837.00;;;9.88;79.75
71917;BME280;59793;46.506;6.674;2023-02-23T06:07:35;96833.25;;;9.89;79.31
71917;BME280;59793;46.506;6.674;2023-02-23T06:10:02;96781.28;;;9.51;79.14
71917;BME280;59793;46.506;6.674;2023-02-23T06:12:27;96832.09;;;9.87;78.96
71917;BME280;59793;46.506;6.674;2023-02-23T06:14:53;96834.53;;;9.79;78.76
71917;BME280;59793;46.506;6.674;2023-02-23T06:17:18;96851.75;;;9.77;79.21
71917;BME280;59793;46.506;6.674;2023-02-23T06:19:43;96818.84;;;9.51;79.18
71917;BME280;59793;46.506;6.674;2023-02-23T06:22:09;96851.94;;;9.68;79.52
71917;BME280;59793;46.506;6.674;2023-02-23T06:24:35;96834.69;;;9.39;80.19
71917;BME280;59793;46.506;6.674;2023-02-23T06:27:00;96810.25;;;9.39;79.92
71917;BME280;59793;46.506;6.674;2023-02-23T06:29:26;96836.50;;;9.67;79.49
71917;BME280;59793;46.506;6.674;2023-02-23T06:31:51;96844.13;;;9.72;79.38
71917;BME280;59793;46.506;6.674;2023-02-23T06:34:16;96840.13;;;9.62;79.03
71917;BME280;59793;46.506;6.674;2023-02-23T06:36:42;96848.34;;;9.61;79.35
71917;BME280;59793;46.506;6.674;2023-02-23T06:39:09;96852.78;;;9.56;79.42
71917;BME280;59793;46.506;6.674;2023-02-23T06:41:35;96857.00;;;9.45;79.70
71917;BME280;59793;46.506;6.674;2023-02-23T06:44:00;96823.31;;;9.19;79.77
71917;BME280;59793;46.506;6.674;2023-02-23T06:46:26;96828.75;;;9.26;79.85
71917;BME280;59793;46.506;6.674;2023-02-23T06:48:55;96864.88;;;9.45;80.06
71917;BME280;59793;46.506;6.674;2023-02-23T06:51:21;96866.75;;;9.45;80.01
71917;BME280;59793;46.506;6.674;2023-02-23T06:53:47;96820.31;;;9.21;79.76
71917;BME280;59793;46.506;6.674;2023-02-23T06:56:12;96838.16;;;9.43;79.54
71917;BME280;59793;46.506;6.674;2023-02-23T06:58:39;96824.34;;;9.46;79.56
71917;BME280;59793;46.506;6.674;2023-02-23T07:01:04;96846.13;;;9.47;79.92
71917;BME280;59793;46.506;6.674;2023-02-23T07:03:30;96871.63;;;9.74;79.60
71917;BME280;59793;46.506;6.674;2023-02-23T07:05:55;96874.84;;;9.84;79.27
71917;BME280;59793;46.506;6.674;2023-02-23T07:08:20;96850.31;;;9.64;79.22
71917;BME280;59793;46.506;6.674;2023-02-23T07:10:46;96869.16;;;9.81;79.54
71917;BME280;59793;46.506;6.674;2023-02-23T07:13:11;96876.22;;;9.93;79.75
71917;BME280;59793;46.506;6.674;2023-02-23T07:15:38;96874.16;;;10.02;79.41
71917;BME280;59793;46.506;6.674;2023-02-23T07:18:04;96880.69;;;10.09;79.46
71917;BME280;59793;46.506;6.674;2023-02-23T07:20:29;96852.03;;;9.88;79.53
71917;BME280;59793;46.506;6.674;2023-02-23T07:22:56;96840.97;;;9.82;79.56
71917;BME280;59793;46.506;6.674;2023-02-23T07:25:21;96854.72;;;9.91;79.25
71917;BME280;59793;46.506;6.674;2023-02-23T07:27:47;96860.94;;;9.83;79.43
71917;BME280;59793;46.506;6.674;2023-02-23T07:30:13;96867.22;;;9.94;79.28
71917;BME280;59793;46.506;6.674;2023-02-23T07:32:39;96877.31;;;10.08;79.43
71917;BME280;59793;46.506;6.674;2023-02-23T07:35:05;96850.56;;;9.74;79.54
71917;BME280;59793;46.506;6.674;2023-02-23T07:37:30;96882.41;;;10.01;79.44
71917;BME280;59793;46.506;6.674;2023-02-23T07:39:56;96876.56;;;10.08;78.45
71917;BME280;59793;46.506;6.674;2023-02-23T07:42:21;96863.38;;;10.08;77.90
71917;BME280;59793;46.506;6.674;2023-02-23T07:44:46;96884.69;;;10.34;77.76
71917;BME280;59793;46.506;6.674;2023-02-23T07:47:12;96877.75;;;10.26;77.80
71917;BME280;59793;46.506;6.674;2023-02-23T07:49:37;96888.84;;;10.35;76.94
71917;BME280;59793;46.506;6.674;2023-02-23T07:52:03;96871.19;;;10.20;77.46
71917;BME280;59793;46.506;6.674;2023-02-23T07:54:28;96849.56;;;10.11;77.31
71917;BME280;59793;46.506;6.674;2023-02-23T07:56:53;96863.94;;;10.48;76.62
71917;BME280;59793;46.506;6.674;2023-02-23T07:59:19;96863.00;;;10.76;75.49
71917;BME280;59793;46.506;6.674;2023-02-23T08:01:45;96880.28;;;11.12;74.86
71917;BME280;59793;46.506;6.674;2023-02-23T08:04:10;96857.16;;;11.25;74.28
71917;BME280;59793;46.506;6.674;2023-02-23T08:06:36;96872.81;;;11.57;73.77
71917;BME280;59793;46.506;6.674;2023-02-23T08:09:03;96846.75;;;11.55;72.97
71917;BME280;59793;46.506;6.674;2023-02-23T08:11:29;96869.69;;;11.74;72.90
71917;BME280;59793;46.506;6.674;2023-02-23T08:13:57;96850.53;;;11.77;72.43
71917;BME280;59793;46.506;6.674;2023-02-23T08:16:33;96859.78;;;11.90;72.39
71917;BME280;59793;46.506;6.674;2023-02-23T08:18:59;96878.06;;;11.99;72.75
71917;BME280;59793;46.506;6.674;2023-02-23T08:21:26;96884.25;;;12.10;72.11
71917;BME280;59793;46.506;6.674;2023-02-23T08:23:54;96873.03;;;12.17;71.66
71917;BME280;59793;46.506;6.674;2023-02-23T08:26:20;96853.53;;;11.99;71.97
71917;BME280;59793;46.506;6.674;2023-02-23T08:28:46;96877.94;;;12.18;71.30
71917;BME280;59793;46.506;6.674;2023-02-23T08:31:12;96846.56;;;12.13;71.51
71917;BME280;59793;46.506;6.674;2023-02-23T08:33:38;96862.97;;;12.53;69.62
71917;BME280;59793;46.506;6.674;2023-02-23T08:36:05;96881.44;;;12.79;68.92
71917;BME280;59793;46.506;6.674;2023-02-23T08:38:31;96874.63;;;12.78;68.11
71917;BME280;59793;46.506;6.674;2023-02-23T08:41:00;96850.97;;;12.59;67.96
71917;BME280;59793;46.506;6.674;2023-02-23T08:43:26;96867.66;;;12.36;69.15
71917;BME280;59793;46.506;6.674;2023-02-23T08:45:52;96867.88;;;12.24;69.29
71917;BME280;59793;46.506;6.674;2023-02-23T08:48:17;96877.50;;;12.13;69.48
71917;BME280;59793;46.506;6.674;2023-02-23T08:50:42;96874.16;;;12.16;69.69
71917;BME280;59793;46.506;6.674;2023-02-23T08:53:08;96852.56;;;12.10;69.82
71917;BME280;59793;46.506;6.674;2023-02-23T08:55:37;96877.06;;;12.34;69.09
71917;BME280;59793;46.506;6.674;2023-02-23T08:58:02;96851.00;;;12.32;67.95
71917;BME280;59793;46.506;6.674;2023-02-23T09:00:27;96862.34;;;12.63;67.19
71917;BME280;59793;46.506;6.674;2023-02-23T09:02:53;96853.53;;;12.52;68.23
71917;BME280;59793;46.506;6.674;2023-02-23T09:05:18;96868.44;;;12.67;68.11
71917;BME280;59793;46.506;6.674;2023-02-23T09:07:45;96861.94;;;12.61;67.33
71917;BME280;59793;46.506;6.674;2023-02-23T09:10:16;96855.09;;;12.86;67.08
71917;BME280;59793;46.506;6.674;2023-02-23T09:12:43;96855.94;;;12.94;65.76
71917;BME280;59793;46.506;6.674;2023-02-23T09:15:09;96863.25;;;13.04;65.55
71917;BME280;59793;46.506;6.674;2023-02-23T09:17:35;96847.38;;;12.74;66.60
71917;BME280;59793;46.506;6.674;2023-02-23T09:20:00;96862.78;;;13.29;66.17
71917;BME280;59793;46.506;6.674;2023-02-23T09:22:26;96843.50;;;13.69;63.35
71917;BME280;59793;46.506;6.674;2023-02-23T09:24:51;96835.09;;;14.08;61.83
71917;BME280;59793;46.506;6.674;2023-02-23T09:27:17;96851.13;;;14.29;61.82
71917;BME280;59793;46.506;6.674;2023-02-23T09:29:42;96853.31;;;14.20;61.28
71917;BME280;59793;46.506;6.674;2023-02-23T09:32:09;96865.78;;;14.16;61.15
71917;BME280;59793;46.506;6.674;2023-02-23T09:34:35;96844.63;;;13.68;62.14
71917;BME280;59793;46.506;6.674;2023-02-23T09:37:01;96875.06;;;13.92;61.93
71917;BME280;59793;46.506;6.674;2023-02-23T09:39:27;96837.00;;;13.63;61.80
71917;BME280;59793;46.506;6.674;2023-02-23T09:49:58;96864.63;;;14.10;61.63
71917;BME280;59793;46.506;6.674;2023-02-23T09:52:28;96878.09;;;13.50;64.67
71917;BME280;59793;46.506;6.674;2023-02-23T09:54:56;96856.38;;;14.22;62.27
71917;BME280;59793;46.506;6.674;2023-02-23T09:57:36;96883.88;;;14.58;60.15
71917;BME280;59793;46.506;6.674;2023-02-23T10:00:09;96883.25;;;13.76;62.72
71917;BME280;59793;46.506;6.674;2023-02-23T10:02:38;96869.03;;;13.95;61.31
71917;BME280;59793;46.506;6.674;2023-02-23T10:05:11;96853.75;;;14.92;59.59
71917;BME280;59793;46.506;6.674;2023-02-23T10:07:51;96869.38;;;15.22;57.40
71917;BME280;59793;46.506;6.674;2023-02-23T10:10:44;96877.66;;;15.06;58.61
71917;BME280;59793;46.506;6.674;2023-02-23T10:16:09;96866.63;;;14.97;58.83
71917;BME280;59793;46.506;6.674;2023-02-23T10:18:51;96860.75;;;15.78;56.66
71917;BME280;59793;46.506;6.674;2023-02-23T10:21:30;96853.94;;;15.67;56.08
71917;BME280;59793;46.506;6.674;2023-02-23T10:26:43;96856.13;;;15.33;56.48
71917;BME280;59793;46.506;6.674;2023-02-23T10:29:47;96852.72;;;15.43;56.90
71917;BME280;59793;46.506;6.674;2023-02-23T10:32:26;96856.16;;;15.43;57.21
71917;BME280;59793;46.506;6.674;2023-02-23T10:34:56;96838.75;;;15.85;55.31
71917;BME280;59793;46.506;6.674;2023-02-23T10:37:23;96838.75;;;16.03;54.83
71917;BME280;59793;46.506;6.674;2023-02-23T10:39:50;96836.81;;;16.25;54.06
71917;BME280;59793;46.506;6.674;2023-02-23T10:42:19;96849.75;;;16.27;53.84
71917;BME280;59793;46.506;6.674;2023-02-23T10:44:45;96846.34;;;16.08;54.30
71917;BME280;59793;46.506;6.674;2023-02-23T10:47:18;96852.72;;;16.43;53.70
71917;BME280;59793;46.506;6.674;2023-02-23T10:49:52;96860.25;;;16.84;52.79
71917;BME280;59793;46.506;6.674;2023-02-23T10:52:26;96840.66;;;15.92;54.72
71917;BME280;59793;46.506;6.674;2023-02-23T10:54:53;96860.00;;;16.10;54.63
71917;BME280;59793;46.506;6.674;2023-02-23T10:57:23;96853.13;;;16.45;53.44
71917;BME280;59793;46.506;6.674;2023-02-23T11:02:45;96845.56;;;16.29;54.13
71917;BME280;59793;46.506;6.674;2023-02-23T11:08:16;96852.34;;;15.26;56.28
71917;BME280;59793;46.506;6.674;2023-02-23T11:13:25;96829.25;;;15.48;56.63
71917;BME280;59793;46.506;6.674;2023-02-23T11:15:58;96848.53;;;15.31;56.51
71917;BME280;59793;46.506;6.674;2023-02-23T11:18:25;96832.66;;;15.52;55.85
71917;BME280;59793;46.506;6.674;2023-02-23T11:20:51;96834.91;;;15.50;55.69
71917;BME280;59793;46.506;6.674;2023-02-23T11:23:20;96843.72;;;15.83;54.64
71917;BME280;59793;46.506;6.674;2023-02-23T11:25:47;96841.41;;;15.74;55.04
71917;BME280;59793;46.506;6.674;2023-02-23T11:28:24;96822.78;;;16.17;53.78
71917;BME280;59793;46.506;6.674;2023-02-23T11:30:55;96813.25;;;16.34;52.64
71917;BME280;59793;46.506;6.674;2023-02-23T11:33:24;96834.47;;;16.59;52.14
71917;BME280;59793;46.506;6.674;2023-02-23T11:35:59;96826.06;;;16.71;51.62
71917;BME280;59793;46.506;6.674;2023-02-23T11:38:28;96835.78;;;17.17;49.60
71917;BME280;59793;46.506;6.674;2023-02-23T11:41:04;96828.50;;;17.25;51.02
71917;BME280;59793;46.506;6.674;2023-02-23T11:43:30;96825.97;;;17.04;50.10
71917;BME280;59793;46.506;6.674;2023-02-23T11:45:57;96833.03;;;17.32;49.62
71917;BME280;59793;46.506;6.674;2023-02-23T11:50:50;96804.91;;;17.83;47.56
71917;BME280;59793;46.506;6.674;2023-02-23T11:53:22;96815.09;;;17.39;49.30
71917;BME280;59793;46.506;6.674;2023-02-23T11:55:53;96807.28;;;17.66;48.11
71917;BME280;59793;46.506;6.674;2023-02-23T12:01:06;96806.97;;;17.61;47.73
71917;BME280;59793;46.506;6.674;2023-02-23T12:03:37;96810.28;;;17.72;47.43
71917;BME280;59793;46.506;6.674;2023-02-23T12:06:08;96808.88;;;17.60;48.04
71917;BME280;59793;46.506;6.674;2023-02-23T12:08:39;96807.63;;;17.76;47.30
71917;BME280;59793;46.506;6.674;2023-02-23T12:11:15;96768.25;;;17.49;47.95
71917;BME280;59793;46.506;6.674;2023-02-23T12:16:27;96794.91;;;17.46;48.56
71917;BME280;59793;46.506;6.674;2023-02-23T12:21:47;96786.72;;;17.18;49.34
71917;BME280;59793;46.506;6.674;2023-02-23T12:26:57;96788.69;;;17.59;47.94
71917;BME280;59793;46.506;6.674;2023-02-23T12:29:30;96764.50;;;17.39;49.04
71917;BME280;59793;46.506;6.674;2023-02-23T12:32:13;96781.84;;;17.58;48.57
71917;BME280;59793;46.506;6.674;2023-02-23T12:34:46;96780.78;;;17.97;47.49
71917;BME280;59793;46.506;6.674;2023-02-23T12:40:03;96776.09;;;18.46;48.08
71917;BME280;59793;46.506;6.674;2023-02-23T12:43:01;96777.59;;;18.47;46.81
71917;BME280;59793;46.506;6.674;2023-02-23T12:45:38;96768.53;;;17.03;50.69
71917;BME280;59793;46.506;6.674;2023-02-23T12:48:23;96770.38;;;16.25;52.55
71917;BME280;59793;46.506;6.674;2023-02-23T12:50:55;96764.13;;;16.75;51.65
71917;BME280;59793;46.506;6.674;2023-02-23T12:53:36;96765.25;;;16.81;51.82
71917;BME280;59793;46.506;6.674;2023-02-23T12:58:46;96767.38;;;17.59;49.10
71917;BME280;59793;46.506;6.674;2023-02-23T13:01:20;96765.03;;;17.68;49.68
71917;BME280;59793;46.506;6.674;2023-02-23T13:11:59;96758.25;;;17.60;49.58
71917;BME280;59793;46.506;6.674;2023-02-23T13:17:58;96757.50;;;17.04;51.13
71917;BME280;59793;46.506;6.674;2023-02-23T13:28:20;96749.25;;;17.92;49.27
71917;BME280;59793;46.506;6.674;2023-02-23T13:30:52;96748.00;;;18.00;48.69
71917;BME280;59793;46.506;6.674;2023-02-23T13:33:36;96733.50;;;18.70;46.57
71917;BME280;59793;46.506;6.674;2023-02-23T13:36:03;96749.50;;;19.27;45.90
71917;BME280;59793;46.506;6.674;2023-02-23T13:41:38;96745.59;;;20.02;44.00
71917;BME280;59793;46.506;6.674;2023-02-23T13:44:17;96738.31;;;19.83;43.34
71917;BME280;59793;46.506;6.674;2023-02-23T13:51:58;96733.53;;;19.47;43.78
71917;BME280;59793;46.506;6.674;2023-02-23T13:54:31;96729.56;;;19.32;44.40
71917;BME280;59793;46.506;6.674;2023-02-23T13:57:17;96748.25;;;19.08;45.35
71917;BME280;59793;46.506;6.674;2023-02-23T13:59:46;96732.38;;;18.67;45.97
71917;BME280;59793;46.506;6.674;2023-02-23T14:02:34;96741.91;;;17.58;48.70
71917;BME280;59793;46.506;6.674;2023-02-23T14:05:17;96731.09;;;17.28;46.94
71917;BME280;59793;46.506;6.674;2023-02-23T14:07:46;96739.72;;;16.90;47.99
71917;BME280;59793;46.506;6.674;2023-02-23T14:10:24;96737.53;;;16.64;50.24
71917;BME280;59793;46.506;6.674;2023-02-23T14:13:31;96730.91;;;16.16;49.65
71917;BME280;59793;46.506;6.674;2023-02-23T14:16:16;96729.03;;;16.06;51.13
71917;BME280;59793;46.506;6.674;2023-02-23T14:19:29;96721.88;;;15.74;50.35
71917;BME280;59793;46.506;6.674;2023-02-23T14:22:07;96709.38;;;15.71;50.71
71917;BME280;59793;46.506;6.674;2023-02-23T14:24:34;96723.41;;;15.75;50.52
71917;BME280;59793;46.506;6.674;2023-02-23T14:29:30;96713.16;;;15.60;51.57
71917;BME280;59793;46.506;6.674;2023-02-23T14:42:28;96687.00;;;15.19;52.48
71917;BME280;59793;46.506;6.674;2023-02-23T14:44:55;96675.63;;;15.11;53.01
71917;BME280;59793;46.506;6.674;2023-02-23T14:47:25;96698.38;;;15.19;53.44
71917;BME280;59793;46.506;6.674;2023-02-23T14:49:59;96677.94;;;15.13;53.32
71917;BME280;59793;46.506;6.674;2023-02-23T14:52:32;96693.06;;;15.19;53.47
71917;BME280;59793;46.506;6.674;2023-02-23T14:57:38;96693.06;;;14.98;53.82
71917;BME280;59793;46.506;6.674;2023-02-23T15:02:39;96685.47;;;14.93;55.10
71917;BME280;59793;46.506;6.674;2023-02-23T15:05:29;96690.78;;;15.00;55.44
71917;BME280;59793;46.506;6.674;2023-02-23T15:08:03;96686.25;;;14.97;55.58
71917;BME280;59793;46.506;6.674;2023-02-23T15:10:32;96681.69;;;15.04;54.90
71917;BME280;59793;46.506;6.674;2023-02-23T15:13:00;96686.63;;;15.10;55.05
71917;BME280;59793;46.506;6.674;2023-02-23T15:15:31;96671.09;;;15.15;54.83
71917;BME280;59793;46.506;6.674;2023-02-23T15:17:58;96680.94;;;15.11;54.75
71917;BME280;59793;46.506;6.674;2023-02-23T15:20:29;96683.22;;;14.84;55.63
71917;BME280;59793;46.506;6.674;2023-02-23T15:22:59;96664.25;;;14.68;55.12